Time;durP1;ratioP1;P1;durP2;ratioP2;P2;SDS_P1;SDS_P2;PMS_P1;PMS_P2;Temp;Humidity;BMP_temperature;BMP_pressure;BME280_temperature;BME280_humidity;BME280_pressure;Samples;Min_cycle;Max_cycle;Signal;HPM_P1;HPM_P2
2022/05/08 00:02:18;;;;;;;5.07;2.20;;;20.30;52.50;;;;;;5088713;28;20043;-74
2022/05/08 00:04:44;;;;;;;4.43;2.30;;;20.20;52.40;;;;;;5088903;28;20528;-70
2022/05/08 00:07:09;;;;;;;4.07;2.00;;;20.20;52.40;;;;;;5086599;28;20048;-72
2022/05/08 00:09:36;;;;;;;5.75;1.83;;;20.20;52.40;;;;;;5088288;28;20043;-71
2022/05/08 00:12:02;;;;;;;5.25;2.42;;;20.20;52.40;;;;;;5087105;28;20089;-71
2022/05/08 00:14:31;;;;;;;5.95;2.22;;;20.20;52.40;;;;;;5086234;28;20083;-76
2022/05/08 00:16:56;;;;;;;4.18;2.03;;;20.20;52.40;;;;;;5087878;28;20089;-73
2022/05/08 00:19:25;;;;;;;;;;;20.20;52.40;;;;;;5086939;28;20063;-72
2022/05/08 00:21:50;;;;;;;6.18;2.20;;;20.10;52.30;;;;;;5088356;28;19959;-71
2022/05/08 00:24:19;;;;;;;;;;;20.20;52.40;;;;;;5088318;28;20036;-71
2022/05/08 00:26:44;;;;;;;3.47;1.90;;;20.10;52.30;;;;;;5090782;28;20004;-72
2022/05/08 00:29:11;;;;;;;3.58;1.85;;;20.10;52.40;;;;;;5087579;28;20060;-69
2022/05/08 00:31:36;;;;;;;6.40;2.42;;;20.10;52.30;;;;;;5098074;27;20048;-71
2022/05/08 00:34:03;;;;;;;5.18;2.05;;;20.10;52.30;;;;;;5087830;28;20511;-71
2022/05/08 00:36:28;;;;;;;4.38;2.03;;;20.10;52.30;;;;;;5087609;28;20104;-71
2022/05/08 00:38:55;;;;;;;7.05;2.08;;;20.10;52.30;;;;;;5098891;27;20040;-71
2022/05/08 00:41:21;;;;;;;6.28;2.17;;;20.10;52.30;;;;;;5086133;28;20067;-72
2022/05/08 00:43:47;;;;;;;5.85;1.90;;;20.10;52.30;;;;;;5091187;28;20044;-72
2022/05/08 00:46:14;;;;;;;5.38;2.10;;;20.10;52.30;;;;;;5085723;28;20031;-79
2022/05/08 00:48:41;;;;;;;6.13;2.03;;;20.10;52.30;;;;;;5088829;28;21071;-71
2022/05/08 00:51:15;;;;;;;6.28;2.00;;;20.00;52.20;;;;;;5083949;28;20055;-77
2022/05/08 00:53:48;;;;;;;7.40;2.30;;;20.00;52.20;;;;;;5089512;28;20063;-77
2022/05/08 00:56:15;;;;;;;5.38;2.15;;;20.00;52.10;;;;;;5089614;28;20033;-73
2022/05/08 00:58:42;;;;;;;5.28;2.03;;;20.00;52.10;;;;;;5085350;28;20040;-72
2022/05/08 01:01:09;;;;;;;6.35;2.40;;;20.00;52.10;;;;;;5085561;28;20508;-70
2022/05/08 01:03:35;;;;;;;4.10;2.08;;;20.00;52.10;;;;;;5067880;28;20048;-71
2022/05/08 01:06:06;;;;;;;5.05;1.92;;;20.00;52.10;;;;;;5071080;28;20044;-77
2022/05/08 01:08:34;;;;;;;8.18;2.15;;;20.00;52.00;;;;;;5088223;28;20085;-76
2022/05/08 01:11:04;;;;;;;4.90;1.80;;;20.00;52.10;;;;;;5085382;28;20550;-72
2022/05/08 01:13:30;;;;;;;5.13;2.00;;;19.90;52.00;;;;;;5087712;28;20054;-72
2022/05/08 01:15:56;;;;;;;6.63;2.10;;;19.90;51.90;;;;;;5086215;28;20041;-73
2022/05/08 01:18:23;;;;;;;5.13;1.90;;;19.90;51.90;;;;;;5087232;28;20032;-72
2022/05/08 01:20:49;;;;;;;5.45;1.85;;;19.90;51.90;;;;;;5110806;27;20055;-75
2022/05/08 01:23:21;;;;;;;5.40;1.90;;;19.90;51.90;;;;;;5086482;28;20032;-72
2022/05/08 01:25:55;;;;;;;7.15;2.35;;;19.90;51.90;;;;;;5088655;28;20041;-72
2022/05/08 01:28:22;;;;;;;5.53;2.30;;;19.90;52.60;;;;;;5087985;28;20072;-72
2022/05/08 01:30:53;;;;;;;6.00;2.10;;;19.90;51.80;;;;;;5087350;28;20432;-73
2022/05/08 01:33:20;;;;;;;5.75;1.80;;;19.90;51.70;;;;;;5087381;28;20294;-72
2022/05/08 01:35:46;;;;;;;5.13;2.00;;;19.90;51.70;;;;;;5089993;28;20039;-74
2022/05/08 01:38:14;;;;;;;5.50;1.92;;;19.90;51.70;;;;;;5085960;28;20046;-71
2022/05/08 01:40:41;;;;;;;6.18;2.13;;;19.80;51.70;;;;;;5080417;28;20071;-71
2022/05/08 01:43:07;;;;;;;5.60;2.00;;;19.80;51.60;;;;;;5084054;28;20044;-71
2022/05/08 01:45:33;;;;;;;5.20;2.05;;;19.80;51.60;;;;;;5087879;28;20036;-71
2022/05/08 01:50:44;;;;;;;6.85;2.08;;;19.80;51.60;;;;;;5087414;28;20040;-73
2022/05/08 01:53:10;;;;;;;5.35;1.70;;;19.80;51.50;;;;;;5087060;28;20040;-76
2022/05/08 01:55:35;;;;;;;4.90;1.77;;;19.80;51.50;;;;;;5090017;28;20437;-71
2022/05/08 01:58:01;;;;;;;4.55;1.83;;;19.80;51.60;;;;;;5086767;28;20047;-72
2022/05/08 02:00:28;;;;;;;7.43;1.92;;;19.80;51.50;;;;;;5085385;28;20044;-74
2022/05/08 02:02:55;;;;;;;5.97;1.98;;;19.80;51.50;;;;;;5090195;28;20522;-73
2022/05/08 02:05:21;;;;;;;4.40;2.22;;;19.80;51.50;;;;;;5083768;28;20107;-73
2022/05/08 02:07:48;;;;;;;4.70;2.00;;;19.80;51.50;;;;;;5085551;28;20036;-71
2022/05/08 02:10:17;;;;;;;5.57;1.98;;;19.70;51.40;;;;;;5086951;28;20133;-73
2022/05/08 02:12:45;;;;;;;5.35;2.00;;;19.80;51.40;;;;;;5085507;28;20040;-72
2022/05/08 02:15:12;;;;;;;4.85;1.80;;;19.80;51.50;;;;;;5085816;28;20043;-71
2022/05/08 02:17:38;;;;;;;4.50;1.90;;;19.70;51.40;;;;;;5085320;28;20079;-71
2022/05/08 02:20:06;;;;;;;6.68;1.80;;;19.70;51.40;;;;;;5084379;28;20036;-73
2022/05/08 02:22:32;;;;;;;4.57;1.98;;;19.70;51.30;;;;;;5085404;28;20051;-72
2022/05/08 02:24:58;;;;;;;8.15;2.03;;;19.70;51.30;;;;;;5083026;28;20062;-72
2022/05/08 02:27:24;;;;;;;4.93;1.70;;;19.70;51.30;;;;;;5085170;28;20828;-73
2022/05/08 02:29:50;;;;;;;4.13;1.80;;;19.70;51.30;;;;;;5085025;28;20572;-71
2022/05/08 02:32:17;;;;;;;4.45;1.77;;;19.70;51.30;;;;;;5084933;28;20447;-72
2022/05/08 02:34:43;;;;;;;3.47;1.80;;;19.70;51.20;;;;;;5080054;28;20044;-71
2022/05/08 02:37:09;;;;;;;3.50;1.50;;;19.70;51.20;;;;;;5085514;28;20093;-71
2022/05/08 02:39:35;;;;;;;4.13;1.63;;;19.70;51.20;;;;;;5112067;27;20032;-71
2022/05/08 02:42:00;;;;;;;5.15;1.50;;;19.70;51.20;;;;;;5087389;28;20052;-73
2022/05/08 02:44:26;;;;;;;5.45;1.55;;;19.70;51.20;;;;;;5087342;28;20036;-71
2022/05/08 02:46:52;;;;;;;5.13;2.03;;;19.60;51.10;;;;;;5085515;28;20036;-73
2022/05/08 02:49:17;;;;;;;6.30;1.98;;;19.70;51.10;;;;;;5084378;28;20118;-71
2022/05/08 02:51:43;;;;;;;4.68;1.95;;;19.60;51.10;;;;;;5085557;28;20479;-72
2022/05/08 02:54:08;;;;;;;5.05;1.60;;;19.60;51.10;;;;;;5086757;28;20044;-71
2022/05/08 02:59:18;;;;;;;4.72;1.90;;;19.60;51.00;;;;;;5109702;27;20127;-72
2022/05/08 03:01:43;;;;;;;3.50;1.55;;;19.60;51.00;;;;;;5109340;27;20115;-76
2022/05/08 03:04:09;;;;;;;3.05;1.33;;;19.60;51.00;;;;;;5083499;28;20683;-71
2022/05/08 03:06:35;;;;;;;4.32;1.58;;;19.60;50.90;;;;;;5081241;28;20039;-73
2022/05/08 03:09:00;;;;;;;4.55;1.70;;;19.60;50.90;;;;;;5082655;28;20038;-72
2022/05/08 03:11:26;;;;;;;5.07;1.48;;;19.60;50.90;;;;;;5083568;28;20051;-72
2022/05/08 03:13:53;;;;;;;4.32;1.77;;;19.60;50.80;;;;;;5082727;28;20035;-76
2022/05/08 03:16:19;;;;;;;4.68;1.67;;;19.60;50.80;;;;;;5082644;28;20036;-72
2022/05/08 03:18:45;;;;;;;2.72;1.40;;;19.60;50.70;;;;;;5083847;28;20032;-75
2022/05/08 03:21:12;;;;;;;5.95;1.73;;;19.60;50.60;;;;;;5083964;28;20537;-73
2022/05/08 03:23:39;;;;;;;5.30;1.77;;;19.60;50.60;;;;;;5085612;28;20756;-72
2022/05/08 03:26:05;;;;;;;6.07;1.70;;;19.60;50.60;;;;;;5094853;27;20032;-77
2022/05/08 03:28:32;;;;;;;5.47;1.98;;;19.60;50.60;;;;;;5087160;28;20125;-71
2022/05/08 03:30:59;;;;;;;6.90;1.73;;;19.70;50.60;;;;;;5083328;28;20053;-75
2022/05/08 03:33:28;;;;;;;2.88;1.30;;;19.70;50.50;;;;;;5087663;28;20052;-77
2022/05/08 03:35:54;;;;;;;3.53;1.75;;;19.60;50.50;;;;;;5085952;28;20507;-77
2022/05/08 03:38:20;;;;;;;4.78;1.45;;;19.60;50.50;;;;;;5085452;28;20036;-70
2022/05/08 03:40:45;;;;;;;3.45;1.48;;;19.60;50.40;;;;;;5085267;28;20032;-76
2022/05/08 03:43:11;;;;;;;5.20;1.70;;;19.60;50.40;;;;;;5079314;28;20419;-77
2022/05/08 03:45:37;;;;;;;3.78;1.38;;;19.60;50.40;;;;;;5086290;28;20083;-71
2022/05/08 03:48:03;;;;;;;3.58;1.40;;;19.60;50.40;;;;;;5084883;28;20032;-72
2022/05/08 03:50:29;;;;;;;4.88;1.70;;;19.60;50.30;;;;;;5083007;28;20044;-76
2022/05/08 03:52:59;;;;;;;5.82;1.60;;;19.60;50.30;;;;;;5085792;28;20051;-74
2022/05/08 03:55:25;;;;;;;6.25;1.80;;;19.60;50.30;;;;;;5083296;28;20083;-70
2022/05/08 03:57:51;;;;;;;5.05;1.42;;;19.60;50.20;;;;;;5085462;28;20519;-77
2022/05/08 04:00:17;;;;;;;4.65;1.40;;;19.60;50.20;;;;;;5082433;28;20051;-74
2022/05/08 04:02:43;;;;;;;4.43;1.40;;;19.60;50.20;;;;;;5086519;28;20063;-75
2022/05/08 04:05:10;;;;;;;4.38;1.20;;;19.60;50.20;;;;;;5083563;28;20388;-71
2022/05/08 04:07:37;;;;;;;3.28;1.42;;;19.60;50.20;;;;;;5086063;28;20062;-72
2022/05/08 04:10:03;;;;;;;2.33;1.30;;;19.60;50.10;;;;;;5084924;28;20105;-75
2022/05/08 04:12:32;;;;;;;3.22;1.50;;;19.60;50.10;;;;;;5086008;28;20032;-70
2022/05/08 04:14:59;;;;;;;3.75;1.40;;;19.60;50.10;;;;;;5082013;28;20051;-76
2022/05/08 04:17:26;;;;;;;4.10;1.50;;;19.60;50.00;;;;;;5083979;28;20142;-76
2022/05/08 04:19:52;;;;;;;2.80;1.30;;;19.60;50.10;;;;;;5082547;28;20113;-71
2022/05/08 04:25:02;;;;;;;4.90;1.58;;;19.60;50.00;;;;;;5086956;28;20079;-74
2022/05/08 04:27:27;;;;;;;4.43;1.25;;;19.60;50.00;;;;;;5084718;28;20071;-69
2022/05/08 04:29:53;;;;;;;4.22;1.60;;;19.60;50.00;;;;;;5080178;28;20051;-75
2022/05/08 04:32:19;;;;;;;4.45;1.40;;;19.60;50.00;;;;;;5085266;28;20052;-73
2022/05/08 04:34:44;;;;;;;3.72;1.60;;;19.60;49.90;;;;;;5081542;28;20048;-74
2022/05/08 04:37:10;;;;;;;3.55;1.35;;;19.60;49.90;;;;;;5085833;28;20036;-74
2022/05/08 04:39:36;;;;;;;3.58;1.40;;;19.60;49.90;;;;;;5084544;28;20090;-70
2022/05/08 04:42:02;;;;;;;4.15;1.50;;;19.60;49.90;;;;;;5088247;28;20031;-68
2022/05/08 04:44:28;;;;;;;3.05;1.38;;;19.60;49.90;;;;;;5086620;28;20047;-69
2022/05/08 04:46:53;;;;;;;3.58;1.48;;;19.60;49.90;;;;;;5087567;28;20141;-72
2022/05/08 04:49:19;;;;;;;3.90;1.60;;;19.60;49.90;;;;;;5085641;28;20124;-69
2022/05/08 04:51:45;;;;;;;5.15;1.50;;;19.60;49.80;;;;;;5087361;28;20032;-70
2022/05/08 04:54:10;;;;;;;4.13;1.30;;;19.60;49.80;;;;;;5087584;28;20036;-69
2022/05/08 04:56:36;;;;;;;4.80;1.42;;;19.50;49.80;;;;;;5088094;28;20168;-72
2022/05/08 04:59:02;;;;;;;3.58;1.52;;;19.50;49.90;;;;;;5090452;28;20888;-71
2022/05/08 05:01:27;;;;;;;2.85;1.30;;;19.60;49.80;;;;;;5085711;28;20054;-70
2022/05/08 05:03:53;;;;;;;3.70;1.20;;;19.50;49.80;;;;;;5089475;28;20060;-69
2022/05/08 05:06:18;;;;;;;5.15;1.50;;;19.50;49.80;;;;;;5088175;28;20039;-70
2022/05/08 05:08:44;;;;;;;3.55;1.27;;;19.50;49.90;;;;;;5088012;28;20070;-69
2022/05/08 05:11:10;;;;;;;3.40;1.27;;;19.50;49.90;;;;;;5087127;28;20097;-70
2022/05/08 05:13:36;;;;;;;4.47;1.40;;;19.50;49.90;;;;;;5087577;28;20771;-70
2022/05/08 05:16:02;;;;;;;3.15;1.40;;;19.50;49.90;;;;;;5088215;28;20046;-69
2022/05/08 05:18:28;;;;;;;5.25;1.42;;;19.50;49.90;;;;;;5085906;28;20102;-71
2022/05/08 05:20:53;;;;;;;5.25;1.30;;;19.50;49.90;;;;;;5086725;28;20040;-69
2022/05/08 05:23:19;;;;;;;3.50;1.33;;;19.50;49.90;;;;;;5088722;28;20045;-69
2022/05/08 05:25:45;;;;;;;3.72;1.30;;;19.50;49.90;;;;;;5085740;28;20024;-71
2022/05/08 05:28:10;;;;;;;3.92;1.50;;;19.60;50.00;;;;;;5110470;27;20098;-69
2022/05/08 05:30:36;;;;;;;3.42;1.38;;;19.50;49.90;;;;;;5085796;28;20529;-73
2022/05/08 05:33:02;;;;;;;3.80;1.30;;;19.60;50.00;;;;;;5087250;28;20055;-70
2022/05/08 05:35:27;;;;;;;2.55;0.90;;;19.50;49.90;;;;;;5087938;28;20097;-69
2022/05/08 05:37:53;;;;;;;3.08;1.23;;;19.60;50.00;;;;;;5089070;28;20690;-69
2022/05/08 05:40:20;;;;;;;3.47;1.08;;;19.60;50.00;;;;;;5066905;28;20048;-70
2022/05/08 05:42:46;;;;;;;3.83;1.38;;;19.50;50.00;;;;;;5088560;28;20095;-69
2022/05/08 05:45:12;;;;;;;5.10;1.50;;;19.60;50.10;;;;;;5084575;28;20050;-70
2022/05/08 05:47:50;;;;;;;3.17;1.20;;;19.60;50.00;;;;;;5088858;28;20377;-70
2022/05/08 05:50:20;;;;;;;2.83;0.90;;;19.60;50.10;;;;;;5085465;28;20049;-69
2022/05/08 05:52:46;;;;;;;3.33;1.20;;;19.60;50.10;;;;;;5085752;28;20487;-69
2022/05/08 05:55:12;;;;;;;2.03;1.02;;;19.60;50.20;;;;;;5084396;28;20148;-70
2022/05/08 05:57:39;;;;;;;2.63;1.23;;;19.60;50.40;;;;;;5085463;28;20101;-73
2022/05/08 06:00:10;;;;;;;3.38;1.23;;;19.60;50.50;;;;;;5085694;28;20046;-72
2022/05/08 06:02:39;;;;;;;3.20;1.40;;;19.60;50.70;;;;;;5059112;28;20151;-71
2022/05/08 06:05:06;;;;;;;3.83;1.10;;;19.60;50.90;;;;;;5084114;28;20048;-68
2022/05/08 06:07:33;;;;;;;2.70;1.20;;;19.70;51.10;;;;;;5084522;28;20048;-68
2022/05/08 06:09:59;;;;;;;2.20;1.08;;;19.60;51.20;;;;;;5086493;28;21088;-68
2022/05/08 06:12:25;;;;;;;3.97;1.40;;;19.70;51.40;;;;;;5086519;28;20051;-67
2022/05/08 06:14:50;;;;;;;3.13;1.30;;;19.70;51.50;;;;;;5085436;28;20073;-68
2022/05/08 06:17:16;;;;;;;3.70;1.40;;;19.70;51.60;;;;;;5112000;27;20040;-70
2022/05/08 06:19:41;;;;;;;3.90;1.05;;;19.70;52.40;;;;;;5086494;28;20040;-69
2022/05/08 06:22:07;;;;;;;5.85;1.42;;;19.80;51.70;;;;;;5085760;28;20048;-70
2022/05/08 06:24:38;;;;;;;4.07;1.15;;;19.70;51.70;;;;;;5087301;28;20039;-68
2022/05/08 06:27:04;;;;;;;2.42;1.10;;;19.80;51.80;;;;;;5083489;28;20032;-69
2022/05/08 06:29:30;;;;;;;3.42;1.27;;;19.80;51.90;;;;;;5081888;28;20049;-68
2022/05/08 06:31:56;;;;;;;2.42;0.82;;;19.80;52.00;;;;;;5112382;27;20047;-68
2022/05/08 06:34:21;;;;;;;3.80;1.02;;;19.80;52.00;;;;;;5089109;28;20437;-67
2022/05/08 06:36:47;;;;;;;3.92;1.33;;;19.90;52.10;;;;;;5085137;28;20126;-68
2022/05/08 06:39:15;;;;;;;4.22;1.05;;;19.90;52.10;;;;;;5115094;27;20123;-67
2022/05/08 06:41:41;;;;;;;3.38;1.10;;;19.90;52.20;;;;;;5080866;28;20044;-66
2022/05/08 06:44:08;;;;;;;1.90;0.90;;;20.00;52.20;;;;;;5086668;28;20040;-66
2022/05/08 06:46:36;;;;;;;1.95;0.90;;;20.00;52.20;;;;;;5085243;28;20487;-70
2022/05/08 06:49:02;;;;;;;3.83;1.10;;;20.00;52.20;;;;;;5086171;28;20036;-68
2022/05/08 06:51:28;;;;;;;5.15;1.27;;;20.00;52.20;;;;;;5085173;28;20050;-77
2022/05/08 06:53:54;;;;;;;2.55;0.98;;;20.10;52.30;;;;;;5083829;28;20052;-71
2022/05/08 06:56:20;;;;;;;5.07;1.30;;;20.10;52.10;;;;;;5086827;28;20123;-70
2022/05/08 07:01:38;;;;;;;3.20;1.10;;;20.30;51.90;;;;;;5082839;28;20138;-68
2022/05/08 07:04:08;;;;;;;2.35;1.10;;;20.40;51.80;;;;;;5083411;28;20092;-72
2022/05/08 07:06:35;;;;;;;2.20;1.00;;;20.50;51.80;;;;;;5084150;28;20083;-69
2022/05/08 07:09:00;;;;;;;4.85;1.55;;;20.50;51.50;;;;;;5084809;28;20047;-70
2022/05/08 07:11:26;;;;;;;3.42;0.88;;;20.60;51.40;;;;;;5110833;27;20040;-69
2022/05/08 07:13:52;;;;;;;5.32;1.10;;;20.60;51.20;;;;;;5112510;27;20482;-70
2022/05/08 07:16:18;;;;;;;3.80;1.30;;;20.70;51.20;;;;;;5082869;28;20399;-69
2022/05/08 07:18:43;;;;;;;4.15;1.10;;;20.70;51.20;;;;;;5082500;28;20123;-69
2022/05/08 07:21:09;;;;;;;3.83;1.00;;;20.70;51.20;;;;;;5083875;28;20040;-70
2022/05/08 07:23:34;;;;;;;4.60;1.23;;;20.80;51.10;;;;;;5066350;28;20398;-70
2022/05/08 07:26:00;;;;;;;6.43;1.60;;;20.80;51.20;;;;;;5084247;28;20044;-70
2022/05/08 07:28:27;;;;;;;5.55;1.50;;;20.80;52.10;;;;;;5087665;28;20040;-70
2022/05/08 07:30:53;;;;;;;6.80;1.20;;;20.90;51.60;;;;;;5086027;28;20059;-72
2022/05/08 07:33:19;;;;;;;3.97;1.20;;;20.90;51.60;;;;;;5066079;28;20046;-70
2022/05/08 07:38:31;;;;;;;6.10;1.23;;;20.90;51.70;;;;;;5082850;28;20051;-76
2022/05/08 07:40:57;;;;;;;2.83;1.23;;;20.90;51.70;;;;;;5081335;28;20419;-81
2022/05/08 07:43:23;;;;;;;5.13;1.30;;;20.90;51.60;;;;;;5069580;28;20032;-73
2022/05/08 07:45:48;;;;;;;4.85;1.30;;;21.00;51.70;;;;;;5082364;28;20411;-68
2022/05/08 07:48:16;;;;;;;4.45;1.15;;;21.00;51.70;;;;;;5084457;28;20503;-75
2022/05/08 07:50:42;;;;;;;8.07;1.20;;;21.10;51.60;;;;;;5082046;28;20032;-71
2022/05/08 07:53:08;;;;;;;3.20;1.15;;;21.00;51.50;;;;;;5069174;28;20097;-72
2022/05/08 07:55:34;;;;;;;4.28;1.42;;;21.10;51.40;;;;;;5086010;28;20055;-69
2022/05/08 07:57:59;;;;;;;4.50;1.10;;;21.10;51.30;;;;;;5083673;28;20135;-72
2022/05/08 08:00:25;;;;;;;4.55;1.30;;;21.10;51.30;;;;;;5083584;28;20044;-73
2022/05/08 08:02:51;;;;;;;3.67;1.25;;;21.10;51.20;;;;;;5087023;28;20036;-73
2022/05/08 08:05:16;;;;;;;3.63;1.50;;;21.10;51.20;;;;;;5100556;28;20040;-69
2022/05/08 08:07:46;;;;;;;4.18;1.15;;;21.10;51.20;;;;;;5094786;28;20075;-69
2022/05/08 08:10:12;;;;;;;4.75;1.35;;;21.20;51.30;;;;;;5091573;28;20040;-74
2022/05/08 08:12:38;;;;;;;4.18;1.30;;;21.20;51.30;;;;;;5083526;28;20093;-71
2022/05/08 08:15:04;;;;;;;4.05;1.30;;;21.20;51.30;;;;;;5084120;28;20525;-69
2022/05/08 08:17:30;;;;;;;4.63;1.20;;;21.20;51.10;;;;;;5087696;28;20059;-69
2022/05/08 08:19:56;;;;;;;5.78;1.40;;;21.20;51.00;;;;;;5087046;28;20807;-74
2022/05/08 08:22:22;;;;;;;5.47;1.25;;;21.30;51.10;;;;;;5087555;28;20040;-73
2022/05/08 08:24:48;;;;;;;3.20;1.30;;;21.30;51.10;;;;;;5084113;28;20106;-70
2022/05/08 08:27:16;;;;;;;6.65;1.30;;;21.30;51.10;;;;;;5079020;28;20051;-78
2022/05/08 08:29:43;;;;;;;10.65;1.50;;;21.30;51.20;;;;;;5085249;28;20044;-79
2022/05/08 08:32:09;;;;;;;11.45;1.52;;;21.30;51.20;;;;;;5084206;28;20051;-78
2022/05/08 08:34:36;;;;;;;4.43;1.13;;;21.30;51.20;;;;;;5088314;28;20050;-76
2022/05/08 08:37:01;;;;;;;4.95;1.33;;;21.40;51.20;;;;;;5088438;28;20032;-76
2022/05/08 08:39:27;;;;;;;5.20;1.40;;;21.40;51.20;;;;;;5086148;28;20066;-77
2022/05/08 08:42:06;;;;;;;8.88;1.13;;;21.40;51.10;;;;;;5088524;28;20059;-74
2022/05/08 08:50:04;;;;;;;4.30;1.20;;;21.50;51.10;;;;;;5106800;27;20060;-79
2022/05/08 08:52:29;;;;;;;3.28;1.23;;;21.50;51.10;;;;;;5083448;28;20508;-78
2022/05/08 08:54:59;;;;;;;5.28;1.40;;;21.50;51.00;;;;;;5085934;28;20059;-75
2022/05/08 08:57:24;;;;;;;5.55;1.17;;;21.60;51.00;;;;;;5086479;28;20157;-75
2022/05/08 08:59:50;;;;;;;6.05;1.45;;;21.60;50.90;;;;;;5084516;28;20040;-75
2022/05/08 09:02:18;;;;;;;4.03;1.45;;;21.60;50.90;;;;;;5083552;28;20039;-71
2022/05/08 09:04:54;;;;;;;5.90;1.35;;;21.60;50.90;;;;;;5091343;28;20052;-71
2022/05/08 09:07:48;;;;;;;7.35;1.50;;;21.60;50.80;;;;;;5083211;28;20034;-71
2022/05/08 09:10:18;;;;;;;5.90;1.27;;;21.70;50.60;;;;;;5081091;28;20062;-75
2022/05/08 09:13:05;;;;;;;7.00;1.20;;;21.70;50.70;;;;;;5085270;28;20131;-71
2022/05/08 09:15:37;;;;;;;7.13;1.60;;;21.70;50.60;;;;;;5088658;28;20040;-78
2022/05/08 09:18:03;;;;;;;2.72;1.17;;;21.70;50.50;;;;;;5085877;28;20044;-79
2022/05/08 09:20:34;;;;;;;6.97;1.42;;;21.70;50.50;;;;;;5086026;28;20042;-78
2022/05/08 09:23:18;;;;;;;4.60;1.33;;;21.80;50.50;;;;;;5088966;28;20039;-76
2022/05/08 09:25:54;;;;;;;6.05;1.30;;;21.80;50.30;;;;;;5116851;27;20040;-69
2022/05/08 09:28:31;;;;;;;4.22;1.10;;;21.80;50.10;;;;;;5081174;28;20054;-69
2022/05/08 09:31:05;;;;;;;4.50;1.50;;;21.80;50.00;;;;;;5083567;28;20049;-81
2022/05/08 09:33:39;;;;;;;5.60;1.38;;;21.80;49.70;;;;;;5086697;28;20671;-72
2022/05/08 09:36:09;;;;;;;5.18;1.42;;;21.90;49.50;;;;;;5086985;28;20047;-70
2022/05/08 09:38:45;;;;;;;4.68;1.30;;;21.90;49.40;;;;;;5083345;28;20113;-70
2022/05/08 09:41:12;;;;;;;5.32;1.33;;;21.90;49.20;;;;;;5086595;28;20085;-70
2022/05/08 09:43:40;;;;;;;3.40;1.35;;;21.90;49.20;;;;;;5092523;28;20162;-69
2022/05/08 09:46:06;;;;;;;3.90;1.25;;;22.00;49.00;;;;;;5093348;28;20028;-69
2022/05/08 09:48:33;;;;;;;5.45;1.30;;;22.00;48.80;;;;;;5085623;28;20083;-68
2022/05/08 09:51:10;;;;;;;8.13;1.58;;;22.00;48.50;;;;;;5098133;28;20056;-68
2022/05/08 09:53:38;;;;;;;10.02;1.42;;;22.00;48.20;;;;;;5086433;28;20032;-66
2022/05/08 09:56:09;;;;;;;6.10;1.85;;;22.00;48.10;;;;;;5090740;28;20047;-68
2022/05/08 09:58:35;;;;;;;5.10;1.48;;;22.00;48.00;;;;;;5080546;28;20493;-69
2022/05/08 10:01:02;;;;;;;7.88;1.63;;;22.00;47.90;;;;;;5077295;28;20039;-69
2022/05/08 10:03:30;;;;;;;6.78;1.50;;;22.00;47.80;;;;;;5086347;28;20105;-69
2022/05/08 10:05:59;;;;;;;4.82;1.50;;;22.00;48.50;;;;;;5088378;28;20507;-68
2022/05/08 10:08:30;;;;;;;7.45;1.45;;;22.00;47.60;;;;;;5084433;28;20036;-70
2022/05/08 10:13:56;;;;;;;5.25;1.50;;;22.10;47.40;;;;;;5081008;28;20049;-70
2022/05/08 10:16:50;;;;;;;6.43;1.50;;;22.10;47.50;;;;;;5076972;28;20040;-70
2022/05/08 10:19:19;;;;;;;5.60;1.40;;;22.10;47.50;;;;;;5091484;28;20059;-69
2022/05/08 10:22:00;;;;;;;6.50;1.42;;;22.10;47.50;;;;;;5099366;28;20447;-70
2022/05/08 10:24:36;;;;;;;7.88;1.55;;;22.10;48.00;;;;;;5075058;28;21250;-70
2022/05/08 10:27:17;;;;;;;7.20;1.40;;;22.10;47.10;;;;;;5118989;27;20105;-68
2022/05/08 10:29:54;;;;;;;9.07;1.90;;;22.10;47.00;;;;;;5094407;28;20104;-69
2022/05/08 10:32:35;;;;;;;8.83;1.97;;;22.10;46.90;;;;;;5102330;28;20435;-71
2022/05/08 10:35:12;;;;;;;7.65;2.10;;;22.10;46.90;;;;;;5083766;28;20073;-71
2022/05/08 10:37:51;;;;;;;5.68;1.55;;;22.10;47.00;;;;;;5086472;28;20051;-69
2022/05/08 10:40:23;;;;;;;7.07;1.58;;;22.10;46.90;;;;;;5070130;28;20043;-71
2022/05/08 10:42:54;;;;;;;6.18;1.63;;;22.20;47.00;;;;;;5124719;27;20437;-68
2022/05/08 10:45:32;;;;;;;10.52;1.45;;;22.20;46.90;;;;;;5093024;28;20051;-74
2022/05/08 10:48:01;;;;;;;5.93;1.80;;;22.20;46.80;;;;;;5077981;28;20086;-74
2022/05/08 10:50:26;;;;;;;9.02;1.63;;;22.20;46.80;;;;;;5089428;28;20130;-75
2022/05/08 10:52:52;;;;;;;7.60;1.40;;;22.20;46.70;;;;;;5093882;28;20069;-79
2022/05/08 10:55:18;;;;;;;5.38;1.58;;;22.20;46.70;;;;;;5090758;28;20047;-78
2022/05/08 10:57:50;;;;;;;5.82;1.48;;;22.20;46.70;;;;;;5092814;28;20043;-70
2022/05/08 11:00:24;;;;;;;6.13;1.58;;;22.20;46.60;;;;;;5090566;28;20134;-69
2022/05/08 11:02:51;;;;;;;5.70;1.40;;;22.20;46.50;;;;;;5095340;28;20045;-70
2022/05/08 11:05:43;;;;;;;5.03;1.52;;;22.20;46.50;;;;;;5087830;28;20044;-70
2022/05/08 11:08:10;;;;;;;5.25;1.50;;;22.20;46.50;;;;;;5089548;28;20667;-70
2022/05/08 11:10:38;;;;;;;5.30;1.42;;;22.20;46.50;;;;;;5081120;28;20480;-70
2022/05/08 11:13:19;;;;;;;7.28;1.80;;;22.20;46.50;;;;;;5088988;28;20040;-69
2022/05/08 11:15:48;;;;;;;5.25;1.13;;;22.20;46.50;;;;;;5083916;28;20048;-76
2022/05/08 11:18:19;;;;;;;6.20;1.75;;;22.20;46.50;;;;;;5089850;28;20149;-79
2022/05/08 11:20:50;;;;;;;5.55;1.50;;;22.20;46.40;;;;;;5095812;28;20047;-77
2022/05/08 11:23:21;;;;;;;3.78;1.30;;;22.20;46.30;;;;;;5090351;28;20055;-82
2022/05/08 11:25:48;;;;;;;6.07;1.17;;;22.20;46.30;;;;;;5090800;28;20047;-78
2022/05/08 11:28:20;;;;;;;7.55;1.30;;;22.20;46.00;;;;;;5095476;28;20478;-77
2022/05/08 11:30:46;;;;;;;6.88;1.52;;;22.20;45.90;;;;;;5087102;28;20138;-78
2022/05/08 11:36:11;;;;;;;4.38;1.45;;;22.20;45.90;;;;;;5092879;28;20651;-79
2022/05/08 11:38:42;;;;;;;4.47;1.23;;;22.20;45.90;;;;;;5078226;28;20082;-80
2022/05/08 11:41:13;;;;;;;8.20;1.40;;;22.20;45.90;;;;;;5085073;28;20059;-75
2022/05/08 11:43:40;;;;;;;10.40;1.70;;;22.20;46.00;;;;;;5095737;28;20423;-78
2022/05/08 11:46:10;;;;;;;7.77;1.70;;;22.20;46.10;;;;;;5092053;28;20054;-76
2022/05/08 11:48:37;;;;;;;9.60;1.40;;;22.20;46.20;;;;;;5088537;28;20122;-73
2022/05/08 11:51:04;;;;;;;7.45;1.52;;;22.30;46.30;;;;;;5084311;28;20063;-77
2022/05/08 11:53:50;;;;;;;6.25;1.63;;;22.30;46.30;;;;;;5079169;28;20044;-80
2022/05/08 11:56:29;;;;;;;7.03;1.50;;;22.30;46.30;;;;;;5096314;28;20536;-77
2022/05/08 11:58:56;;;;;;;7.53;1.70;;;22.30;46.60;;;;;;5085407;28;20055;-75
2022/05/08 12:01:27;;;;;;;18.87;1.87;;;22.30;47.00;;;;;;5074327;28;20131;-73
2022/05/08 12:03:54;;;;;;;6.40;1.83;;;22.30;48.00;;;;;;5075774;28;20042;-73
2022/05/08 12:06:20;;;;;;;5.85;1.40;;;22.30;47.50;;;;;;5075131;28;20071;-74
2022/05/08 12:08:47;;;;;;;7.75;1.63;;;22.30;47.60;;;;;;5076503;28;20044;-73
2022/05/08 12:11:37;;;;;;;6.88;1.88;;;22.30;47.60;;;;;;5104285;27;20071;-70
2022/05/08 12:14:07;;;;;;;7.03;2.05;;;22.30;47.70;;;;;;5095706;28;20035;-70
2022/05/08 12:16:34;;;;;;;7.07;1.83;;;22.30;47.50;;;;;;5092798;28;20134;-73
2022/05/08 12:19:12;;;;;;;12.32;1.77;;;22.20;47.40;;;;;;5087390;28;20056;-72
2022/05/08 12:21:41;;;;;;;12.70;1.60;;;22.30;47.30;;;;;;5092863;28;20043;-71
2022/05/08 12:24:10;;;;;;;;;;;22.30;47.20;;;;;;5098434;28;20090;-71
2022/05/08 12:26:36;;;;;;;7.20;1.70;;;22.30;47.10;;;;;;5086350;28;19951;-71
2022/05/08 12:29:02;;;;;;;8.98;1.75;;;22.30;47.00;;;;;;5093981;28;20102;-69
2022/05/08 12:31:28;;;;;;;8.55;1.60;;;22.30;46.80;;;;;;5089014;28;20172;-73
2022/05/08 12:33:53;;;;;;;6.28;1.55;;;22.30;46.80;;;;;;5090548;28;20138;-75
2022/05/08 12:36:19;;;;;;;3.63;1.27;;;22.30;46.50;;;;;;5099783;28;20055;-71
2022/05/08 12:38:44;;;;;;;11.82;2.03;;;22.30;46.10;;;;;;5090120;28;20048;-76
2022/05/08 12:41:12;;;;;;;5.05;1.50;;;22.30;45.90;;;;;;5099253;28;20051;-71
2022/05/08 12:43:38;;;;;;;6.82;1.70;;;22.40;45.80;;;;;;5082032;28;20160;-72
2022/05/08 12:46:03;;;;;;;5.38;1.70;;;22.40;45.70;;;;;;5084074;28;20134;-73
2022/05/08 12:48:29;;;;;;;7.30;1.83;;;22.40;45.50;;;;;;5113947;28;20032;-72
2022/05/08 12:50:54;;;;;;;4.35;1.52;;;22.40;45.40;;;;;;5084390;28;20040;-70
2022/05/08 12:53:20;;;;;;;5.63;1.60;;;22.40;45.30;;;;;;5083273;28;20039;-71
2022/05/08 12:55:45;;;;;;;4.10;1.60;;;22.50;45.20;;;;;;5095957;28;20047;-71
2022/05/08 13:00:56;;;;;;;6.20;1.58;;;22.50;45.10;;;;;;5098045;28;20142;-71
2022/05/08 13:03:22;;;;;;;4.50;1.50;;;22.50;45.10;;;;;;5108965;28;20435;-71
2022/05/08 13:05:49;;;;;;;6.53;1.63;;;22.50;45.00;;;;;;5103590;28;20608;-69
2022/05/08 13:08:15;;;;;;;7.53;1.70;;;22.50;44.90;;;;;;5106919;28;20518;-70
2022/05/08 13:10:41;;;;;;;4.72;1.58;;;22.60;44.80;;;;;;5106425;28;20035;-70
2022/05/08 13:13:06;;;;;;;6.57;1.63;;;22.60;44.70;;;;;;5090936;28;20133;-71
2022/05/08 13:15:32;;;;;;;3.45;1.38;;;22.60;44.70;;;;;;5105065;28;20052;-71
2022/05/08 13:17:58;;;;;;;5.20;1.48;;;22.50;44.60;;;;;;5096315;28;20395;-73
2022/05/08 13:20:24;;;;;;;5.00;1.65;;;22.50;44.50;;;;;;5094609;28;20415;-78